Time;durP1;ratioP1;P1;durP2;ratioP2;P2;SDS_P1;SDS_P2;PMS_P1;PMS_P2;Temp;Humidity;BMP_temperature;BMP_pressure;BME280_temperature;BME280_humidity;BME280_pressure;Samples;Min_cycle;Max_cycle;Signal;HPM_P1;HPM_P2
2023/11/11 00:01:57;;;;;;;2.70;2.03;;;25.30;99.90;;;;;;5012117;28;20045;-57
2023/11/11 00:04:23;;;;;;;2.95;2.03;;;25.30;99.90;;;;;;5012211;28;20080;-56
2023/11/11 00:06:49;;;;;;;2.58;1.95;;;25.30;99.90;;;;;;5012256;28;20020;-55
2023/11/11 00:09:16;;;;;;;3.75;2.10;;;25.30;99.90;;;;;;5012303;28;20021;-56
2023/11/11 00:11:44;;;;;;;3.22;1.92;;;25.30;99.90;;;;;;5010864;28;20076;-56
2023/11/11 00:14:11;;;;;;;3.30;1.90;;;25.30;99.90;;;;;;5012179;28;20038;-55
2023/11/11 00:16:36;;;;;;;2.38;1.98;;;25.30;99.90;;;;;;5012163;28;20497;-56
2023/11/11 00:19:02;;;;;;;2.50;2.00;;;25.30;99.90;;;;;;5012079;28;20065;-56
2023/11/11 00:21:28;;;;;;;2.10;1.70;;;25.20;99.90;;;;;;5010617;28;20462;-55
2023/11/11 00:23:57;;;;;;;4.43;1.95;;;25.20;99.90;;;;;;5011995;28;20072;-55
2023/11/11 00:26:23;;;;;;;3.30;1.98;;;25.20;99.90;;;;;;5011990;28;20528;-55
2023/11/11 00:28:49;;;;;;;2.10;1.65;;;25.20;99.90;;;;;;5012248;28;20510;-56
2023/11/11 00:31:15;;;;;;;2.85;1.85;;;25.20;99.90;;;;;;5011929;28;20100;-56
2023/11/11 00:33:42;;;;;;;3.35;2.00;;;25.20;99.90;;;;;;5010572;28;20493;-56
2023/11/11 00:36:09;;;;;;;4.43;2.10;;;25.20;99.90;;;;;;5011857;28;20541;-56
2023/11/11 00:38:36;;;;;;;2.00;1.63;;;25.10;99.90;;;;;;5011811;28;20517;-56
2023/11/11 00:41:05;;;;;;;2.35;1.60;;;25.20;99.90;;;;;;5011966;28;20080;-56
2023/11/11 00:43:31;;;;;;;2.75;1.73;;;25.10;99.90;;;;;;5011862;28;20026;-56
2023/11/11 00:45:57;;;;;;;2.10;1.70;;;25.10;99.90;;;;;;5011805;28;20156;-56
2023/11/11 00:48:24;;;;;;;3.03;1.77;;;25.10;99.90;;;;;;5010513;28;20101;-55
2023/11/11 00:50:51;;;;;;;2.40;1.40;;;25.10;99.90;;;;;;5013787;28;20034;-55
2023/11/11 00:53:17;;;;;;;2.45;1.23;;;25.00;99.90;;;;;;5015612;28;20092;-55
2023/11/11 00:55:44;;;;;;;1.90;1.42;;;25.10;99.90;;;;;;5015541;28;20489;-55
2023/11/11 00:58:09;;;;;;;1.85;1.40;;;25.10;99.90;;;;;;5013830;28;20414;-55
2023/11/11 01:00:38;;;;;;;3.15;1.75;;;25.00;99.90;;;;;;5015677;28;20061;-55
2023/11/11 01:03:05;;;;;;;3.05;1.73;;;25.00;99.90;;;;;;5015178;28;20029;-55
2023/11/11 01:05:31;;;;;;;1.90;1.47;;;25.00;99.90;;;;;;5015363;28;20501;-55
2023/11/11 01:07:57;;;;;;;1.98;1.55;;;25.00;99.90;;;;;;5015189;28;20019;-56
2023/11/11 01:10:23;;;;;;;2.28;1.50;;;25.00;99.90;;;;;;5015309;28;20471;-56
2023/11/11 01:12:54;;;;;;;2.58;1.58;;;25.00;99.90;;;;;;5015549;28;20516;-56
2023/11/11 01:15:20;;;;;;;2.15;1.48;;;24.90;99.90;;;;;;5015250;28;20026;-56
2023/11/11 01:17:46;;;;;;;1.48;1.20;;;25.00;99.90;;;;;;5014970;28;20022;-55
2023/11/11 01:20:14;;;;;;;3.80;1.83;;;24.90;99.90;;;;;;5014866;28;20033;-55
2023/11/11 01:22:40;;;;;;;2.28;1.45;;;24.90;99.90;;;;;;5014774;28;20430;-55
2023/11/11 01:25:12;;;;;;;3.17;1.48;;;24.90;99.90;;;;;;5014894;28;20103;-55
2023/11/11 01:27:38;;;;;;;2.80;1.92;;;24.90;99.90;;;;;;5030051;28;20025;-55
2023/11/11 01:30:05;;;;;;;2.35;1.73;;;24.90;99.90;;;;;;5014790;28;20032;-55
2023/11/11 01:32:31;;;;;;;2.47;1.40;;;24.80;99.90;;;;;;5014869;28;20053;-55
2023/11/11 01:34:56;;;;;;;1.88;1.58;;;24.80;99.90;;;;;;5014789;28;20479;-55
2023/11/11 01:37:22;;;;;;;2.05;1.50;;;24.80;99.90;;;;;;5030163;28;20030;-55
2023/11/11 01:39:48;;;;;;;2.25;1.63;;;24.80;99.90;;;;;;5029638;28;20038;-55
2023/11/11 01:42:15;;;;;;;1.88;1.27;;;24.80;99.90;;;;;;5014492;28;20030;-55
2023/11/11 01:44:41;;;;;;;1.83;1.27;;;24.80;99.90;;;;;;5014562;28;20018;-61
2023/11/11 01:47:07;;;;;;;1.70;1.42;;;24.80;99.90;;;;;;5014374;28;20454;-56
2023/11/11 01:49:37;;;;;;;3.35;1.67;;;24.70;99.90;;;;;;5014470;28;20026;-55
2023/11/11 01:52:05;;;;;;;2.03;1.50;;;24.70;99.90;;;;;;5014374;28;20103;-56
2023/11/11 01:54:31;;;;;;;;;;;24.70;99.90;;;;;;5014831;28;20101;-56
2023/11/11 01:56:57;;;;;;;1.38;1.25;;;24.70;99.90;;;;;;5013049;28;20000;-57
2023/11/11 01:59:26;;;;;;;2.55;1.30;;;24.70;99.90;;;;;;5012914;28;20034;-56
2023/11/11 02:01:51;;;;;;;1.73;1.00;;;24.70;99.90;;;;;;5051912;22;20417;-50
2023/11/11 02:04:18;;;;;;;1.83;1.20;;;24.70;99.90;;;;;;5053960;28;20028;-50
2023/11/11 02:06:47;;;;;;;1.63;1.10;;;24.70;99.90;;;;;;5053933;28;20024;-50
2023/11/11 02:09:15;;;;;;;2.00;1.02;;;24.70;99.90;;;;;;5053697;28;20036;-50
2023/11/11 02:11:41;;;;;;;1.85;1.33;;;24.70;99.90;;;;;;5053574;28;20045;-48
2023/11/11 02:14:10;;;;;;;1.70;1.40;;;24.60;99.90;;;;;;5053689;28;20025;-48
2023/11/11 02:16:36;;;;;;;1.23;0.80;;;24.60;99.90;;;;;;5053581;28;20017;-49
2023/11/11 02:19:02;;;;;;;1.23;0.80;;;24.60;99.90;;;;;;5053648;28;20037;-49
2023/11/11 02:21:31;;;;;;;1.77;1.05;;;24.60;99.90;;;;;;5052102;28;20017;-49
2023/11/11 02:24:00;;;;;;;1.90;1.05;;;24.60;99.90;;;;;;5053501;28;20074;-49
2023/11/11 02:26:26;;;;;;;1.05;0.90;;;24.60;99.90;;;;;;5053482;28;20028;-50
2023/11/11 02:28:51;;;;;;;1.73;1.00;;;24.60;99.90;;;;;;5053573;28;20025;-49
2023/11/11 02:31:18;;;;;;;1.63;0.95;;;24.50;99.90;;;;;;5053355;28;20021;-49
2023/11/11 02:33:44;;;;;;;1.33;1.00;;;24.50;99.90;;;;;;5053265;28;20100;-49
2023/11/11 02:36:10;;;;;;;1.27;0.80;;;24.50;99.90;;;;;;5053296;28;20484;-50
2023/11/11 02:38:36;;;;;;;1.58;0.98;;;24.50;99.90;;;;;;5051880;28;20087;-49
2023/11/11 02:41:01;;;;;;;2.05;1.00;;;24.50;99.90;;;;;;5052912;28;20021;-50
2023/11/11 02:43:28;;;;;;;2.60;1.33;;;24.50;99.90;;;;;;5053082;28;20103;-50
2023/11/11 02:45:54;;;;;;;2.88;1.33;;;24.50;99.90;;;;;;5053333;28;20512;-49
2023/11/11 02:48:19;;;;;;;1.92;1.23;;;24.50;99.90;;;;;;5052981;28;20025;-50
2023/11/11 02:50:45;;;;;;;1.20;0.75;;;24.50;99.90;;;;;;5052973;28;20028;-49
2023/11/11 02:53:11;;;;;;;1.73;1.00;;;24.50;99.90;;;;;;5051668;28;20108;-49
2023/11/11 02:55:37;;;;;;;2.15;0.75;;;24.50;99.90;;;;;;5051694;28;20024;-49
2023/11/11 02:58:02;;;;;;;2.28;0.95;;;24.40;99.90;;;;;;5052860;28;20056;-49
2023/11/11 03:00:28;;;;;;;1.58;1.00;;;24.40;99.90;;;;;;5053348;28;20029;-49
2023/11/11 03:02:54;;;;;;;1.20;0.98;;;24.40;99.90;;;;;;5052869;28;20389;-50
2023/11/11 03:05:20;;;;;;;2.38;1.15;;;24.40;99.90;;;;;;5051589;28;20067;-49
2023/11/11 03:07:46;;;;;;;1.20;0.77;;;24.40;99.90;;;;;;5052670;28;20032;-49
2023/11/11 03:10:12;;;;;;;1.33;0.98;;;24.40;99.90;;;;;;5052557;28;20507;-49
2023/11/11 03:12:39;;;;;;;1.88;0.80;;;24.40;99.90;;;;;;5052715;28;20036;-50
2023/11/11 03:15:05;;;;;;;1.10;0.70;;;24.30;99.90;;;;;;5052601;28;20333;-49
2023/11/11 03:17:31;;;;;;;1.13;0.80;;;24.30;99.90;;;;;;5052590;28;20024;-49
2023/11/11 03:19:58;;;;;;;1.15;0.70;;;24.30;99.90;;;;;;5052598;28;20282;-49
2023/11/11 03:22:24;;;;;;;1.08;0.80;;;24.30;99.90;;;;;;5052583;28;20487;-49
2023/11/11 03:24:50;;;;;;;1.27;0.70;;;24.30;99.90;;;;;;5052277;28;20060;-50
2023/11/11 03:27:16;;;;;;;1.00;0.75;;;24.30;99.90;;;;;;5052396;28;20099;-49
2023/11/11 03:29:42;;;;;;;1.25;0.98;;;24.30;99.90;;;;;;5051148;28;20024;-49
2023/11/11 03:32:08;;;;;;;1.15;0.68;;;24.30;99.90;;;;;;5052376;28;20017;-50
2023/11/11 03:34:35;;;;;;;0.93;0.75;;;24.30;99.90;;;;;;5052157;28;20025;-50
2023/11/11 03:37:01;;;;;;;1.75;0.82;;;24.30;99.90;;;;;;5052378;28;20028;-50
2023/11/11 03:39:27;;;;;;;1.00;0.90;;;24.30;99.90;;;;;;5052367;28;20037;-49
2023/11/11 03:41:53;;;;;;;1.10;0.57;;;24.20;99.90;;;;;;5052142;28;20500;-49
2023/11/11 03:44:18;;;;;;;0.90;0.70;;;24.20;99.90;;;;;;5052260;28;20029;-49
2023/11/11 03:46:44;;;;;;;1.30;0.75;;;24.20;99.90;;;;;;5052090;28;20470;-49
2023/11/11 03:49:10;;;;;;;0.98;0.47;;;24.20;99.90;;;;;;5052153;28;20025;-50
2023/11/11 03:51:36;;;;;;;1.00;0.63;;;24.10;99.90;;;;;;5052060;28;20052;-50
2023/11/11 03:54:02;;;;;;;1.08;0.77;;;24.20;99.90;;;;;;5052161;28;20037;-49
2023/11/11 03:56:27;;;;;;;1.20;0.85;;;24.20;99.90;;;;;;5051013;28;20499;-49
2023/11/11 03:58:53;;;;;;;1.42;0.63;;;24.10;99.90;;;;;;5051889;28;20037;-49
2023/11/11 04:01:19;;;;;;;0.95;0.45;;;24.10;99.90;;;;;;5052365;28;20102;-49
2023/11/11 04:03:45;;;;;;;1.60;0.60;;;24.10;99.90;;;;;;5052014;28;20040;-49
2023/11/11 04:06:11;;;;;;;1.90;0.52;;;24.10;99.90;;;;;;5051937;28;20033;-49
2023/11/11 04:08:39;;;;;;;1.20;0.60;;;24.10;99.90;;;;;;5051991;28;20134;-49
2023/11/11 04:11:07;;;;;;;1.20;0.60;;;24.10;99.90;;;;;;5051865;28;20017;-50
2023/11/11 04:13:33;;;;;;;0.70;0.50;;;24.10;99.90;;;;;;5051965;28;20028;-49
2023/11/11 04:16:00;;;;;;;1.23;0.82;;;24.10;99.90;;;;;;5052072;28;20017;-53
2023/11/11 04:18:26;;;;;;;1.25;0.52;;;24.10;99.90;;;;;;5051787;28;20064;-50
2023/11/11 04:20:52;;;;;;;1.40;0.75;;;24.00;99.90;;;;;;5051900;28;20063;-49
2023/11/11 04:23:19;;;;;;;1.08;0.52;;;24.00;99.90;;;;;;5051804;28;20028;-49
2023/11/11 04:25:44;;;;;;;0.57;0.57;;;24.10;99.90;;;;;;5053501;28;20104;-51
2023/11/11 04:28:10;;;;;;;0.90;0.60;;;24.00;99.90;;;;;;5055757;28;20100;-50
2023/11/11 04:30:36;;;;;;;1.10;0.77;;;24.10;99.90;;;;;;5055697;28;20087;-50
2023/11/11 04:33:01;;;;;;;2.70;0.50;;;24.00;99.90;;;;;;5055605;28;20021;-50
2023/11/11 04:35:27;;;;;;;0.70;0.50;;;24.10;99.90;;;;;;5054159;28;20492;-50
2023/11/11 04:37:53;;;;;;;0.57;0.47;;;24.00;99.90;;;;;;5055366;28;20059;-50
2023/11/11 04:40:19;;;;;;;1.17;0.70;;;24.10;99.90;;;;;;5055439;28;20027;-49
2023/11/11 04:42:44;;;;;;;0.70;0.57;;;24.00;99.90;;;;;;5055672;28;20056;-50
2023/11/11 04:45:10;;;;;;;0.57;0.40;;;24.00;99.90;;;;;;5054312;28;20029;-50
2023/11/11 04:47:36;;;;;;;3.80;0.85;;;24.00;99.90;;;;;;5055312;28;20354;-49
2023/11/11 04:50:02;;;;;;;0.75;0.70;;;24.00;99.90;;;;;;5055504;28;20024;-49
2023/11/11 04:52:28;;;;;;;1.25;0.65;;;24.00;99.90;;;;;;5055252;28;20033;-50
2023/11/11 04:54:54;;;;;;;0.85;0.70;;;24.00;99.90;;;;;;5055317;28;20045;-49
2023/11/11 04:57:20;;;;;;;1.00;0.50;;;24.00;99.90;;;;;;5053931;28;20059;-49
2023/11/11 04:59:46;;;;;;;0.50;0.50;;;24.00;99.90;;;;;;5055151;28;20108;-49
2023/11/11 05:02:11;;;;;;;1.50;0.60;;;23.90;99.90;;;;;;5055513;28;20048;-50
2023/11/11 05:04:37;;;;;;;0.52;0.40;;;24.00;99.90;;;;;;5055009;28;20025;-49
2023/11/11 05:07:03;;;;;;;1.17;0.52;;;23.90;99.90;;;;;;5055195;28;20013;-49
2023/11/11 05:09:29;;;;;;;0.90;0.40;;;23.90;99.90;;;;;;5054861;28;20024;-49
2023/11/11 05:11:56;;;;;;;1.10;0.50;;;23.90;99.90;;;;;;5054844;28;20025;-50
2023/11/11 05:14:23;;;;;;;1.63;0.68;;;23.90;99.90;;;;;;5054987;28;20049;-49
2023/11/11 05:16:50;;;;;;;0.70;0.50;;;23.90;99.90;;;;;;5053599;28;20063;-49
2023/11/11 05:19:20;;;;;;;1.60;0.40;;;23.90;99.90;;;;;;5053487;28;20115;-49
2023/11/11 05:21:46;;;;;;;1.42;0.47;;;23.90;99.90;;;;;;5054892;28;20037;-49
2023/11/11 05:24:13;;;;;;;0.90;0.43;;;23.90;99.90;;;;;;5054754;28;20476;-50
2023/11/11 05:26:40;;;;;;;3.30;0.52;;;23.90;99.90;;;;;;5054647;28;20024;-49
2023/11/11 05:29:06;;;;;;;0.77;0.50;;;23.90;99.90;;;;;;5054744;28;20025;-49
2023/11/11 05:31:31;;;;;;;0.75;0.40;;;23.90;99.90;;;;;;5054706;28;20107;-49
2023/11/11 05:33:58;;;;;;;0.85;0.30;;;23.80;99.90;;;;;;5054474;28;20100;-49
2023/11/11 05:36:25;;;;;;;0.60;0.45;;;23.80;99.90;;;;;;5053541;28;20021;-50
2023/11/11 05:38:50;;;;;;;0.38;0.30;;;23.80;99.90;;;;;;5053944;28;20029;-49
2023/11/11 05:41:16;;;;;;;1.08;0.40;;;23.80;99.90;;;;;;5054466;28;20105;-49
2023/11/11 05:43:42;;;;;;;1.25;0.60;;;23.80;99.90;;;;;;5054249;28;20566;-49
2023/11/11 05:46:08;;;;;;;0.90;0.63;;;23.80;99.90;;;;;;5054305;28;20024;-49
2023/11/11 05:48:37;;;;;;;0.85;0.65;;;23.80;99.90;;;;;;5054431;28;20025;-49
2023/11/11 05:51:04;;;;;;;0.40;0.30;;;23.80;99.90;;;;;;5054309;28;20100;-49
2023/11/11 05:53:31;;;;;;;1.35;0.50;;;23.80;99.90;;;;;;5054105;28;20035;-49
2023/11/11 05:55:57;;;;;;;1.17;0.47;;;23.80;99.90;;;;;;5054016;28;20033;-50
2023/11/11 05:58:23;;;;;;;0.73;0.40;;;23.70;99.90;;;;;;5052512;28;20122;-50
2023/11/11 06:00:48;;;;;;;0.82;0.40;;;23.70;99.90;;;;;;5049157;28;20072;-49
2023/11/11 06:03:14;;;;;;;2.05;0.50;;;23.80;99.90;;;;;;5034125;28;20048;-50
2023/11/11 06:05:40;;;;;;;0.52;0.40;;;23.70;99.90;;;;;;5032231;28;20053;-49
2023/11/11 06:08:09;;;;;;;0.57;0.50;;;23.70;99.90;;;;;;5032088;28;20108;-49
2023/11/11 06:10:37;;;;;;;2.25;0.43;;;23.70;99.90;;;;;;5033104;28;20020;-49
2023/11/11 06:13:07;;;;;;;0.52;0.40;;;23.70;99.90;;;;;;5032865;28;20067;-49
2023/11/11 06:15:36;;;;;;;0.63;0.40;;;23.70;99.90;;;;;;5032482;28;20068;-51
2023/11/11 06:18:03;;;;;;;2.03;0.60;;;23.70;99.90;;;;;;5033657;28;20104;-50
2023/11/11 06:20:33;;;;;;;0.63;0.47;;;23.70;99.90;;;;;;5033644;28;20093;-50
2023/11/11 06:22:59;;;;;;;0.57;0.30;;;23.70;99.90;;;;;;5033622;28;20040;-49
2023/11/11 06:25:25;;;;;;;1.38;0.50;;;23.70;99.90;;;;;;5032415;28;20474;-50
2023/11/11 06:27:52;;;;;;;0.73;0.40;;;23.70;99.90;;;;;;5033499;28;20018;-50
2023/11/11 06:30:19;;;;;;;0.50;0.40;;;23.70;99.90;;;;;;5033560;28;20025;-50
2023/11/11 06:32:51;;;;;;;0.95;0.30;;;23.70;99.90;;;;;;5033447;28;20474;-50
2023/11/11 06:35:18;;;;;;;2.42;0.50;;;23.60;99.90;;;;;;5033259;28;20489;-50
2023/11/11 06:37:44;;;;;;;0.25;0.20;;;23.60;99.90;;;;;;5032265;28;20428;-50
2023/11/11 06:40:10;;;;;;;0.75;0.50;;;23.60;99.90;;;;;;5032007;28;20080;-50
2023/11/11 06:42:37;;;;;;;1.92;0.35;;;23.60;99.90;;;;;;5032155;28;20465;-50
2023/11/11 06:45:05;;;;;;;0.45;0.40;;;23.60;99.90;;;;;;5033167;28;20025;-50
2023/11/11 06:47:31;;;;;;;0.82;0.55;;;23.60;99.90;;;;;;5032935;28;20144;-50
2023/11/11 06:49:57;;;;;;;0.88;0.47;;;23.60;99.90;;;;;;5032969;28;20033;-50
2023/11/11 06:52:23;;;;;;;0.90;0.45;;;23.60;99.90;;;;;;5031919;28;20367;-50
2023/11/11 06:54:49;;;;;;;0.93;0.55;;;23.60;99.90;;;;;;5033004;28;20024;-50
2023/11/11 06:57:16;;;;;;;0.68;0.38;;;23.60;99.90;;;;;;5032915;28;20036;-50
2023/11/11 06:59:42;;;;;;;0.52;0.38;;;23.60;99.90;;;;;;5032825;28;20116;-50
2023/11/11 07:02:12;;;;;;;0.73;0.30;;;23.50;99.90;;;;;;5032835;28;20081;-50
2023/11/11 07:04:40;;;;;;;0.28;0.20;;;23.60;99.90;;;;;;5033076;28;20040;-50
2023/11/11 07:07:07;;;;;;;0.40;0.30;;;23.50;99.90;;;;;;5032965;28;20036;-50
2023/11/11 07:09:33;;;;;;;0.40;0.32;;;23.60;99.90;;;;;;5032608;28;20029;-50
2023/11/11 07:12:00;;;;;;;0.38;0.38;;;23.50;99.90;;;;;;5032731;28;20049;-50
2023/11/11 07:14:26;;;;;;;0.50;0.32;;;23.60;99.90;;;;;;5032648;28;20064;-49
2023/11/11 07:16:52;;;;;;;1.25;0.40;;;23.60;99.90;;;;;;5032671;28;20429;-50
2023/11/11 07:19:18;;;;;;;0.22;0.22;;;23.60;99.90;;;;;;5032621;28;20064;-49
2023/11/11 07:21:44;;;;;;;1.13;0.30;;;23.60;99.90;;;;;;5032547;28;20041;-49
2023/11/11 07:24:10;;;;;;;0.50;0.30;;;23.60;99.90;;;;;;5032587;28;20030;-50
2023/11/11 07:26:36;;;;;;;0.40;0.20;;;23.60;99.90;;;;;;5032550;28;20032;-49
2023/11/11 07:29:02;;;;;;;1.05;0.40;;;23.60;99.90;;;;;;5032513;28;20425;-50
2023/11/11 07:31:28;;;;;;;0.40;0.17;;;23.60;99.90;;;;;;5032555;28;20040;-49
2023/11/11 07:33:54;;;;;;;1.00;0.50;;;23.70;99.90;;;;;;5032307;28;20029;-50
2023/11/11 07:36:20;;;;;;;0.52;0.30;;;23.70;99.90;;;;;;5032330;28;20155;-50
2023/11/11 07:38:46;;;;;;;0.43;0.20;;;23.70;99.90;;;;;;5032112;28;20515;-50
2023/11/11 07:41:12;;;;;;;0.75;0.30;;;23.70;99.90;;;;;;5032516;28;20033;-49
2023/11/11 07:43:41;;;;;;;0.88;0.50;;;23.70;99.90;;;;;;5032741;28;20390;-49
2023/11/11 07:46:06;;;;;;;0.98;0.40;;;23.80;99.90;;;;;;5032255;28;20500;-49
2023/11/11 07:48:33;;;;;;;0.57;0.40;;;23.80;99.90;;;;;;5030872;28;20037;-49
2023/11/11 07:51:01;;;;;;;1.48;0.30;;;23.80;99.90;;;;;;5032231;28;20025;-48
2023/11/11 07:53:27;;;;;;;1.23;0.50;;;23.90;99.90;;;;;;5032085;28;20017;-48
2023/11/11 07:55:52;;;;;;;0.65;0.38;;;23.90;99.90;;;;;;5047513;28;20080;-48
2023/11/11 07:58:20;;;;;;;1.08;0.50;;;23.90;99.90;;;;;;5032091;28;20556;-49
2023/11/11 08:00:46;;;;;;;2.72;0.63;;;23.90;99.90;;;;;;5033689;28;20506;-49
2023/11/11 08:03:12;;;;;;;1.70;0.70;;;24.00;99.90;;;;;;5036310;28;20026;-49
2023/11/11 08:05:38;;;;;;;0.30;0.30;;;24.00;99.90;;;;;;5036019;28;20040;-49
2023/11/11 08:08:03;;;;;;;0.60;0.60;;;24.00;99.90;;;;;;5035981;28;20033;-49
2023/11/11 08:10:31;;;;;;;1.98;0.40;;;24.00;99.90;;;;;;5036029;28;20045;-49
2023/11/11 08:12:56;;;;;;;1.23;0.68;;;24.10;99.90;;;;;;5036049;28;20025;-49
2023/11/11 08:15:23;;;;;;;0.75;0.60;;;24.10;99.90;;;;;;5035878;28;20063;-49
2023/11/11 08:17:49;;;;;;;0.80;0.50;;;24.10;99.90;;;;;;5035803;28;20024;-49
2023/11/11 08:20:18;;;;;;;0.90;0.60;;;24.10;99.90;;;;;;5035942;28;20091;-49
2023/11/11 08:22:45;;;;;;;1.52;0.60;;;24.20;99.90;;;;;;5035871;28;20032;-48
2023/11/11 08:25:12;;;;;;;0.70;0.70;;;24.20;99.90;;;;;;5036045;28;20072;-49
2023/11/11 08:27:39;;;;;;;1.23;0.30;;;24.20;99.90;;;;;;5035711;28;20071;-48
2023/11/11 08:30:06;;;;;;;1.08;0.68;;;24.30;99.90;;;;;;5035603;28;20251;-49
2023/11/11 08:32:32;;;;;;;0.70;0.50;;;24.30;99.90;;;;;;5035215;28;20032;-49
2023/11/11 08:34:58;;;;;;;1.48;0.57;;;24.30;99.90;;;;;;5035406;28;20397;-49
2023/11/11 08:37:23;;;;;;;0.93;0.70;;;24.30;99.90;;;;;;5035479;28;20470;-49
2023/11/11 08:39:49;;;;;;;0.93;0.70;;;24.30;99.90;;;;;;5035318;28;20398;-48
2023/11/11 08:42:15;;;;;;;1.08;0.57;;;24.40;99.90;;;;;;5035599;28;20108;-49
2023/11/11 08:44:41;;;;;;;0.90;0.68;;;24.40;99.90;;;;;;5035690;28;20156;-48
2023/11/11 08:47:07;;;;;;;1.20;0.70;;;24.40;99.90;;;;;;5035280;28;20077;-48
2023/11/11 08:49:34;;;;;;;1.00;0.60;;;24.50;99.90;;;;;;5035257;28;20035;-49
2023/11/11 08:52:04;;;;;;;1.20;0.98;;;24.50;99.90;;;;;;5035245;28;20049;-49
2023/11/11 08:54:30;;;;;;;0.93;0.73;;;24.50;99.90;;;;;;5035204;28;20013;-48
2023/11/11 08:56:56;;;;;;;1.10;0.82;;;24.50;99.90;;;;;;5035084;28;20097;-49
2023/11/11 08:59:22;;;;;;;1.27;1.10;;;24.50;99.90;;;;;;5034761;28;20087;-49
2023/11/11 09:01:48;;;;;;;1.17;0.93;;;24.60;99.90;;;;;;5034854;28;20047;-48
2023/11/11 09:04:14;;;;;;;1.50;1.10;;;24.60;99.90;;;;;;5035114;28;20441;-49
2023/11/11 09:06:39;;;;;;;2.08;1.33;;;24.70;99.90;;;;;;5034937;28;20023;-49
2023/11/11 09:09:05;;;;;;;1.92;0.95;;;24.70;99.90;;;;;;5034850;28;20437;-49
2023/11/11 09:11:36;;;;;;;1.90;1.30;;;24.70;99.90;;;;;;5034636;28;20049;-50
2023/11/11 09:14:05;;;;;;;1.65;1.20;;;24.70;99.90;;;;;;5034925;28;20017;-49
2023/11/11 09:16:32;;;;;;;1.58;0.98;;;24.70;99.90;;;;;;5034855;28;20113;-49
2023/11/11 09:19:04;;;;;;;3.03;1.27;;;24.80;99.90;;;;;;5034517;28;20044;-50
2023/11/11 09:21:31;;;;;;;1.17;0.93;;;24.80;99.90;;;;;;5034724;28;20026;-50
2023/11/11 09:24:00;;;;;;;1.30;0.98;;;24.80;99.90;;;;;;5034627;28;20025;-48
2023/11/11 09:26:25;;;;;;;1.88;1.20;;;24.80;99.90;;;;;;5034392;28;20030;-51
2023/11/11 09:28:51;;;;;;;1.65;1.10;;;24.90;99.90;;;;;;5034593;28;20101;-49
2023/11/11 09:31:17;;;;;;;2.00;1.40;;;24.90;99.90;;;;;;5034539;28;20021;-51
2023/11/11 09:33:47;;;;;;;1.67;0.98;;;24.90;99.90;;;;;;5034974;28;20485;-48
2023/11/11 09:36:17;;;;;;;1.98;1.23;;;25.00;99.90;;;;;;5034375;28;20025;-48
2023/11/11 09:38:44;;;;;;;2.78;1.63;;;25.00;99.90;;;;;;5034063;28;20041;-50
2023/11/11 09:41:10;;;;;;;1.30;1.15;;;25.00;99.90;;;;;;5034169;28;20032;-49
2023/11/11 09:43:36;;;;;;;1.98;1.20;;;25.00;99.90;;;;;;5034008;28;20024;-50
2023/11/11 09:46:04;;;;;;;2.60;1.30;;;25.10;99.90;;;;;;5033920;28;20395;-49
2023/11/11 09:48:31;;;;;;;2.15;1.05;;;25.10;99.90;;;;;;5034230;28;20104;-49
2023/11/11 09:50:58;;;;;;;2.60;1.50;;;25.20;99.90;;;;;;5034062;28;20025;-49
2023/11/11 09:53:25;;;;;;;3.38;1.55;;;25.20;99.90;;;;;;5034124;28;20033;-50
2023/11/11 09:55:52;;;;;;;1.92;1.15;;;25.30;99.90;;;;;;5034099;28;20018;-50
2023/11/11 09:58:19;;;;;;;1.90;1.40;;;25.30;99.90;;;;;;5033871;28;20497;-50
2023/11/11 10:00:48;;;;;;;1.73;1.30;;;25.40;99.90;;;;;;5032836;28;20107;-49
2023/11/11 10:03:14;;;;;;;1.90;1.20;;;25.40;99.90;;;;;;5033835;28;20103;-49
2023/11/11 10:05:40;;;;;;;1.38;1.10;;;25.40;99.90;;;;;;5033909;28;20025;-49
2023/11/11 10:08:07;;;;;;;1.50;1.17;;;25.50;99.90;;;;;;5033701;28;20032;-49
2023/11/11 10:10:35;;;;;;;2.17;1.20;;;25.50;99.90;;;;;;5033972;28;20032;-49
2023/11/11 10:13:00;;;;;;;2.30;1.15;;;25.60;99.90;;;;;;5033543;28;20018;-49
2023/11/11 10:15:26;;;;;;;2.42;1.30;;;25.60;99.90;;;;;;5048968;28;20021;-50
2023/11/11 10:17:52;;;;;;;1.45;1.20;;;25.70;99.90;;;;;;5033602;28;20072;-49
2023/11/11 10:20:18;;;;;;;2.70;1.60;;;25.80;99.90;;;;;;5033592;28;20037;-50
2023/11/11 10:22:48;;;;;;;1.88;1.17;;;25.80;99.90;;;;;;5032862;28;20612;-50
2023/11/11 10:25:18;;;;;;;1.77;1.10;;;25.80;99.90;;;;;;5033501;28;20386;-50
2023/11/11 10:27:51;;;;;;;1.85;1.20;;;25.90;99.90;;;;;;5033471;28;20477;-49
2023/11/11 10:30:19;;;;;;;1.85;1.38;;;25.90;99.90;;;;;;5033193;28;20120;-50
2023/11/11 10:32:48;;;;;;;2.30;1.13;;;25.90;99.90;;;;;;5033353;28;20032;-49
2023/11/11 10:35:24;;;;;;;1.95;1.20;;;26.00;99.90;;;;;;5033387;28;20018;-50
2023/11/11 10:37:50;;;;;;;2.97;1.55;;;26.00;99.90;;;;;;5033259;28;20110;-50
2023/11/11 10:40:19;;;;;;;2.38;1.48;;;26.00;99.90;;;;;;5032932;28;20064;-50
2023/11/11 10:42:47;;;;;;;1.35;1.25;;;26.10;99.90;;;;;;5033209;28;20025;-50
2023/11/11 10:45:15;;;;;;;;;;;26.10;99.90;;;;;;5033613;28;20108;-49
2023/11/11 10:47:42;;;;;;;2.30;1.60;;;26.10;99.90;;;;;;5033459;28;20005;-49
2023/11/11 10:50:08;;;;;;;2.20;1.45;;;26.20;99.90;;;;;;5033244;28;20030;-49
2023/11/11 10:52:39;;;;;;;1.67;1.40;;;26.20;99.90;;;;;;5048286;28;20026;-49
2023/11/11 10:55:07;;;;;;;2.22;1.42;;;26.20;99.90;;;;;;5033188;28;20033;-49
2023/11/11 10:57:33;;;;;;;1.60;1.33;;;26.30;99.90;;;;;;5032703;28;20060;-49
2023/11/11 10:59:59;;;;;;;1.73;1.38;;;26.30;99.90;;;;;;5032809;28;20072;-49
2023/11/11 11:02:26;;;;;;;1.87;1.30;;;26.40;99.90;;;;;;5031548;28;20049;-49
2023/11/11 11:04:59;;;;;;;1.92;1.48;;;26.40;99.90;;;;;;5032818;28;20340;-49
2023/11/11 11:07:32;;;;;;;1.83;1.45;;;26.40;99.90;;;;;;5032532;28;20095;-49
2023/11/11 11:10:05;;;;;;;1.52;1.10;;;26.40;99.90;;;;;;5032700;28;20068;-49
2023/11/11 11:12:43;;;;;;;2.15;1.35;;;26.50;99.90;;;;;;5032690;28;20124;-49
2023/11/11 11:15:13;;;;;;;1.77;1.50;;;26.50;99.90;;;;;;5032730;28;20033;-49
2023/11/11 11:17:47;;;;;;;1.58;1.30;;;26.50;99.90;;;;;;5032452;28;20486;-50
2023/11/11 11:20:17;;;;;;;2.22;1.52;;;26.50;99.90;;;;;;5032483;28;20051;-49
2023/11/11 11:22:46;;;;;;;1.80;1.40;;;26.60;99.90;;;;;;5032418;28;20030;-49
2023/11/11 11:25:48;;;;;;;1.80;1.60;;;26.60;99.90;;;;;;5032505;28;20428;-49
2023/11/11 11:28:15;;;;;;;1.98;1.38;;;26.60;99.90;;;;;;5032344;28;20021;-49
2023/11/11 11:30:45;;;;;;;2.55;1.67;;;26.70;99.90;;;;;;5032615;28;20032;-50
2023/11/11 11:33:16;;;;;;;2.13;1.58;;;26.70;99.90;;;;;;5032626;28;20036;-50
2023/11/11 11:35:58;;;;;;;2.17;1.42;;;26.70;99.90;;;;;;5032170;28;20036;-50
2023/11/11 11:38:28;;;;;;;2.20;1.70;;;26.70;99.90;;;;;;5032075;28;20386;-49
2023/11/11 11:41:12;;;;;;;2.72;1.70;;;26.70;99.90;;;;;;5032162;28;20057;-50
2023/11/11 11:43:40;;;;;;;2.97;1.60;;;26.80;99.90;;;;;;5031157;28;20017;-49
2023/11/11 11:46:07;;;;;;;2.17;1.25;;;26.80;99.90;;;;;;5030776;28;20359;-49
2023/11/11 11:48:35;;;;;;;1.80;1.40;;;26.90;99.90;;;;;;5031989;28;20438;-49
2023/11/11 11:51:08;;;;;;;2.42;1.73;;;26.90;99.90;;;;;;5031993;28;20075;-49
2023/11/11 11:53:41;;;;;;;2.60;1.45;;;26.90;99.90;;;;;;5032164;28;20030;-49
2023/11/11 11:56:09;;;;;;;19.80;5.03;;;26.90;99.90;;;;;;5031991;28;20028;-49
2023/11/11 11:58:45;;;;;;;30.95;6.00;;;26.90;99.90;;;;;;5031846;28;20033;-49
2023/11/11 12:01:11;;;;;;;35.55;6.10;;;27.00;99.90;;;;;;5032114;28;20056;-49
2023/11/11 12:03:37;;;;;;;16.27;4.40;;;27.00;99.90;;;;;;5047357;28;20431;-49
2023/11/11 12:06:03;;;;;;;27.80;5.18;;;27.00;99.90;;;;;;5031697;28;20072;-49
2023/11/11 12:08:29;;;;;;;31.58;5.43;;;27.00;99.90;;;;;;5030491;28;20532;-49
2023/11/11 12:10:56;;;;;;;23.55;5.90;;;27.10;99.90;;;;;;5031843;28;20067;-49
2023/11/11 12:13:22;;;;;;;31.77;5.15;;;27.10;99.90;;;;;;5032070;28;20076;-49
2023/11/11 12:15:51;;;;;;;30.42;5.53;;;27.20;99.90;;;;;;5031725;28;20389;-49
2023/11/11 12:18:19;;;;;;;27.85;5.88;;;27.20;99.90;;;;;;5031675;28;20037;-50
2023/11/11 12:20:47;;;;;;;30.67;7.38;;;27.20;99.90;;;;;;5031817;28;20028;-50
2023/11/11 12:23:21;;;;;;;36.75;7.57;;;27.20;99.90;;;;;;5032090;28;20087;-50
2023/11/11 12:25:47;;;;;;;34.10;6.78;;;27.30;99.90;;;;;;5031766;28;20029;-50
2023/11/11 12:28:13;;;;;;;36.22;7.88;;;27.20;99.90;;;;;;5032016;28;20026;-50
2023/11/11 12:30:40;;;;;;;39.97;6.70;;;27.30;99.90;;;;;;5031948;28;20040;-50
2023/11/11 12:33:08;;;;;;;34.13;7.20;;;27.30;99.90;;;;;;5031667;28;20026;-50
2023/11/11 12:35:41;;;;;;;32.50;7.95;;;27.30;99.90;;;;;;5046909;28;20025;-50
2023/11/11 12:38:24;;;;;;;34.80;7.70;;;27.40;99.90;;;;;;5030341;28;20022;-50
2023/11/11 12:40:53;;;;;;;37.67;7.93;;;27.40;99.90;;;;;;5031571;28;20098;-50
2023/11/11 12:43:20;;;;;;;35.10;7.95;;;27.40;99.90;;;;;;5031727;28;20029;-50
2023/11/11 12:45:50;;;;;;;41.67;8.13;;;27.40;99.90;;;;;;5031792;28;20390;-49